Rechercher aéroport 
image banner adimage banner adimage banner ad
image banner ad

CA81 - Riverside Metro Center

Situé à Riverside, United States

ICAO - CA81, IATA -

Données fournies par Airmate  

Information générale

Coordonnées: N33°58'59" W117°22'34"
Élévation : 950 feet MSL.
Variation magnétique : 14° East
Voir autres Aéroports à California

Données opérationnelles

Special qualification required
Heure actuelle UTC:
Heure actuelle locale:
Météo à : KRAL - Riverside Muni ( 7 km )
METAR: KRAL 262153Z 28012G18KT 9SM SCT090 BKN110 30/19 A2990 RMK AO2 SLP110 T03000189
Voir NOTAMs / SUP AIP / TFR affectant cet aéroport [VIEW]
Fréquences de communication: [VIEW]

Pistes:

Coordonnées de l'aéroport

Adresse: Riverside United States

Vue satellite de CA81